sensor_id;sensor_type;location;lat;lon;timestamp;temperature;humidity
18126;DHT22;53956;52.442;13.284;2022-08-19T00:00:38;27.30;89.20
18126;DHT22;53956;52.442;13.284;2022-08-19T00:03:06;27.30;88.50
18126;DHT22;53956;52.442;13.284;2022-08-19T00:05:33;27.30;88.70
18126;DHT22;53956;52.442;13.284;2022-08-19T00:08:01;27.10;88.60
18126;DHT22;53956;52.442;13.284;2022-08-19T00:10:28;27.20;88.20
18126;DHT22;53956;52.442;13.284;2022-08-19T00:12:55;27.30;88.40
18126;DHT22;53956;52.442;13.284;2022-08-19T00:15:22;27.30;88.10
18126;DHT22;53956;52.442;13.284;2022-08-19T00:17:49;27.20;88.80
18126;DHT22;53956;52.442;13.284;2022-08-19T00:20:18;27.30;88.40
18126;DHT22;53956;52.442;13.284;2022-08-19T00:22:47;27.20;88.30
18126;DHT22;53956;52.442;13.284;2022-08-19T00:25:15;27.20;87.60
18126;DHT22;53956;52.442;13.284;2022-08-19T00:27:42;27.30;88.20
18126;DHT22;53956;52.442;13.284;2022-08-19T00:30:10;27.30;88.20
18126;DHT22;53956;52.442;13.284;2022-08-19T00:32:37;27.20;87.30
18126;DHT22;53956;52.442;13.284;2022-08-19T00:35:05;27.20;88.40
18126;DHT22;53956;52.442;13.284;2022-08-19T00:37:32;27.10;88.00
18126;DHT22;53956;52.442;13.284;2022-08-19T00:40:00;27.00;89.20
18126;DHT22;53956;52.442;13.284;2022-08-19T00:42:30;27.00;89.40
18126;DHT22;53956;52.442;13.284;2022-08-19T00:44:56;26.90;89.20
18126;DHT22;53956;52.442;13.284;2022-08-19T00:47:23;26.90;89.70
18126;DHT22;53956;52.442;13.284;2022-08-19T00:49:52;27.00;89.80
18126;DHT22;53956;52.442;13.284;2022-08-19T00:52:23;26.80;90.10
18126;DHT22;53956;52.442;13.284;2022-08-19T00:54:52;26.90;90.30
18126;DHT22;53956;52.442;13.284;2022-08-19T00:57:23;26.90;89.20
18126;DHT22;53956;52.442;13.284;2022-08-19T00:59:54;26.90;89.30
18126;DHT22;53956;52.442;13.284;2022-08-19T01:02:22;26.80;89.80
18126;DHT22;53956;52.442;13.284;2022-08-19T01:04:49;26.80;90.70
18126;DHT22;53956;52.442;13.284;2022-08-19T01:07:15;26.80;89.70
18126;DHT22;53956;52.442;13.284;2022-08-19T01:09:42;26.60;90.20
18126;DHT22;53956;52.442;13.284;2022-08-19T01:12:09;26.70;89.50
18126;DHT22;53956;52.442;13.284;2022-08-19T01:14:37;26.60;90.40
18126;DHT22;53956;52.442;13.284;2022-08-19T01:17:08;26.60;90.40
18126;DHT22;53956;52.442;13.284;2022-08-19T01:19:37;26.60;91.00
18126;DHT22;53956;52.442;13.284;2022-08-19T01:22:09;26.50;91.10
18126;DHT22;53956;52.442;13.284;2022-08-19T01:24:39;26.50;91.30
18126;DHT22;53956;52.442;13.284;2022-08-19T01:27:06;26.40;91.90
18126;DHT22;53956;52.442;13.284;2022-08-19T01:29:37;26.50;91.40
18126;DHT22;53956;52.442;13.284;2022-08-19T01:32:04;26.60;91.60
18126;DHT22;53956;52.442;13.284;2022-08-19T01:34:31;26.50;92.00
18126;DHT22;53956;52.442;13.284;2022-08-19T01:37:00;26.60;92.10
18126;DHT22;53956;52.442;13.284;2022-08-19T01:39:32;26.60;92.10
18126;DHT22;53956;52.442;13.284;2022-08-19T01:42:00;26.60;91.80
18126;DHT22;53956;52.442;13.284;2022-08-19T01:44:28;26.60;92.40
18126;DHT22;53956;52.442;13.284;2022-08-19T01:46:55;26.50;92.50
18126;DHT22;53956;52.442;13.284;2022-08-19T01:49:23;26.40;93.50
18126;DHT22;53956;52.442;13.284;2022-08-19T01:51:52;26.40;93.40
18126;DHT22;53956;52.442;13.284;2022-08-19T01:54:20;26.20;97.90
18126;DHT22;53956;52.442;13.284;2022-08-19T01:56:46;26.20;97.50
18126;DHT22;53956;52.442;13.284;2022-08-19T01:59:18;26.10;97.40
18126;DHT22;53956;52.442;13.284;2022-08-19T02:01:46;26.00;98.60
18126;DHT22;53956;52.442;13.284;2022-08-19T02:04:12;25.80;99.90
18126;DHT22;53956;52.442;13.284;2022-08-19T02:06:40;25.90;99.70
18126;DHT22;53956;52.442;13.284;2022-08-19T02:09:07;25.90;99.90
18126;DHT22;53956;52.442;13.284;2022-08-19T02:11:36;25.80;99.90
18126;DHT22;53956;52.442;13.284;2022-08-19T02:14:04;25.90;99.90
18126;DHT22;53956;52.442;13.284;2022-08-19T02:16:34;26.00;99.90
18126;DHT22;53956;52.442;13.284;2022-08-19T02:19:02;25.90;99.90
18126;DHT22;53956;52.442;13.284;2022-08-19T02:21:29;25.90;99.90
18126;DHT22;53956;52.442;13.284;2022-08-19T02:23:56;26.00;99.90
18126;DHT22;53956;52.442;13.284;2022-08-19T02:26:23;25.90;98.60
18126;DHT22;53956;52.442;13.284;2022-08-19T02:28:50;25.90;99.40
18126;DHT22;53956;52.442;13.284;2022-08-19T02:31:19;25.90;99.90
18126;DHT22;53956;52.442;13.284;2022-08-19T02:33:48;25.80;99.90
18126;DHT22;53956;52.442;13.284;2022-08-19T02:36:16;25.90;99.90
18126;DHT22;53956;52.442;13.284;2022-08-19T02:38:44;26.00;99.10
18126;DHT22;53956;52.442;13.284;2022-08-19T02:41:12;26.00;98.70
18126;DHT22;53956;52.442;13.284;2022-08-19T02:43:40;26.00;98.50
18126;DHT22;53956;52.442;13.284;2022-08-19T02:46:16;26.00;98.30
18126;DHT22;53956;52.442;13.284;2022-08-19T02:48:48;26.00;98.40
18126;DHT22;53956;52.442;13.284;2022-08-19T02:51:16;26.00;98.70
18126;DHT22;53956;52.442;13.284;2022-08-19T02:53:43;26.00;97.90
18126;DHT22;53956;52.442;13.284;2022-08-19T02:56:10;26.00;97.10
18126;DHT22;53956;52.442;13.284;2022-08-19T02:58:37;26.00;97.60
18126;DHT22;53956;52.442;13.284;2022-08-19T03:01:03;26.10;97.40
18126;DHT22;53956;52.442;13.284;2022-08-19T03:03:31;26.00;99.00
18126;DHT22;53956;52.442;13.284;2022-08-19T03:06:08;26.20;99.10
18126;DHT22;53956;52.442;13.284;2022-08-19T03:08:36;26.10;98.80
18126;DHT22;53956;52.442;13.284;2022-08-19T03:11:04;26.10;99.10
18126;DHT22;53956;52.442;13.284;2022-08-19T03:13:31;26.00;98.80
18126;DHT22;53956;52.442;13.284;2022-08-19T03:15:58;26.00;99.30
18126;DHT22;53956;52.442;13.284;2022-08-19T03:18:24;26.10;98.70
18126;DHT22;53956;52.442;13.284;2022-08-19T03:20:52;26.10;99.10
18126;DHT22;53956;52.442;13.284;2022-08-19T03:23:22;26.00;99.00
18126;DHT22;53956;52.442;13.284;2022-08-19T03:25:51;26.00;98.50
18126;DHT22;53956;52.442;13.284;2022-08-19T03:28:18;26.00;99.50
18126;DHT22;53956;52.442;13.284;2022-08-19T03:30:56;26.10;99.30
18126;DHT22;53956;52.442;13.284;2022-08-19T03:33:25;26.00;99.10
18126;DHT22;53956;52.442;13.284;2022-08-19T03:36:04;26.00;99.40
18126;DHT22;53956;52.442;13.284;2022-08-19T03:38:34;25.90;99.90
18126;DHT22;53956;52.442;13.284;2022-08-19T03:41:05;25.90;99.90
18126;DHT22;53956;52.442;13.284;2022-08-19T03:43:34;25.90;99.90
18126;DHT22;53956;52.442;13.284;2022-08-19T03:46:03;26.00;99.50
18126;DHT22;53956;52.442;13.284;2022-08-19T03:48:32;26.00;99.80
18126;DHT22;53956;52.442;13.284;2022-08-19T03:50:59;26.00;98.80
18126;DHT22;53956;52.442;13.284;2022-08-19T03:53:27;26.00;99.50
18126;DHT22;53956;52.442;13.284;2022-08-19T03:55:56;25.90;99.20
18126;DHT22;53956;52.442;13.284;2022-08-19T03:58:23;25.90;99.90
18126;DHT22;53956;52.442;13.284;2022-08-19T04:00:50;26.00;99.40
18126;DHT22;53956;52.442;13.284;2022-08-19T04:03:16;26.00;99.70
18126;DHT22;53956;52.442;13.284;2022-08-19T04:05:44;26.00;99.90
18126;DHT22;53956;52.442;13.284;2022-08-19T04:08:11;25.90;99.10
18126;DHT22;53956;52.442;13.284;2022-08-19T04:10:38;25.90;99.70
18126;DHT22;53956;52.442;13.284;2022-08-19T04:13:07;25.80;99.90
18126;DHT22;53956;52.442;13.284;2022-08-19T04:15:39;25.80;99.90
18126;DHT22;53956;52.442;13.284;2022-08-19T04:18:07;26.00;99.90
18126;DHT22;53956;52.442;13.284;2022-08-19T04:20:39;25.90;99.90
18126;DHT22;53956;52.442;13.284;2022-08-19T04:23:06;26.00;99.90
18126;DHT22;53956;52.442;13.284;2022-08-19T04:25:36;25.90;99.90
18126;DHT22;53956;52.442;13.284;2022-08-19T04:28:03;25.80;99.90
18126;DHT22;53956;52.442;13.284;2022-08-19T04:30:31;25.90;99.80
18126;DHT22;53956;52.442;13.284;2022-08-19T04:33:03;25.90;99.50
18126;DHT22;53956;52.442;13.284;2022-08-19T04:35:34;25.90;99.90
18126;DHT22;53956;52.442;13.284;2022-08-19T04:38:01;25.90;99.80
18126;DHT22;53956;52.442;13.284;2022-08-19T04:40:28;25.80;99.90
18126;DHT22;53956;52.442;13.284;2022-08-19T04:43:12;25.90;99.90
18126;DHT22;53956;52.442;13.284;2022-08-19T04:45:42;26.00;99.90
18126;DHT22;53956;52.442;13.284;2022-08-19T04:48:10;26.00;99.90
18126;DHT22;53956;52.442;13.284;2022-08-19T04:50:40;26.00;98.90
18126;DHT22;53956;52.442;13.284;2022-08-19T04:53:08;26.00;99.90
18126;DHT22;53956;52.442;13.284;2022-08-19T04:55:37;26.10;99.80
18126;DHT22;53956;52.442;13.284;2022-08-19T04:58:04;26.10;99.00
18126;DHT22;53956;52.442;13.284;2022-08-19T05:00:31;26.10;98.30
18126;DHT22;53956;52.442;13.284;2022-08-19T05:02:59;26.10;98.00
18126;DHT22;53956;52.442;13.284;2022-08-19T05:05:26;26.20;98.00
18126;DHT22;53956;52.442;13.284;2022-08-19T05:07:52;26.20;97.60
18126;DHT22;53956;52.442;13.284;2022-08-19T05:10:21;26.20;96.80
18126;DHT22;53956;52.442;13.284;2022-08-19T05:12:48;26.20;97.70
18126;DHT22;53956;52.442;13.284;2022-08-19T05:15:14;26.30;96.60
18126;DHT22;53956;52.442;13.284;2022-08-19T05:17:41;26.60;93.50
18126;DHT22;53956;52.442;13.284;2022-08-19T05:20:29;26.60;92.80
18126;DHT22;53956;52.442;13.284;2022-08-19T05:23:14;26.40;94.40
18126;DHT22;53956;52.442;13.284;2022-08-19T05:25:42;26.50;93.30
18126;DHT22;53956;52.442;13.284;2022-08-19T05:28:09;26.40;93.50
18126;DHT22;53956;52.442;13.284;2022-08-19T05:30:36;26.40;94.50
18126;DHT22;53956;52.442;13.284;2022-08-19T05:33:03;26.60;93.50
18126;DHT22;53956;52.442;13.284;2022-08-19T05:35:31;26.70;92.80
18126;DHT22;53956;52.442;13.284;2022-08-19T05:37:57;26.70;92.70
18126;DHT22;53956;52.442;13.284;2022-08-19T05:40:24;26.50;93.50
18126;DHT22;53956;52.442;13.284;2022-08-19T05:42:51;26.60;92.70
18126;DHT22;53956;52.442;13.284;2022-08-19T05:45:18;26.60;92.20
18126;DHT22;53956;52.442;13.284;2022-08-19T05:47:45;26.80;91.50
18126;DHT22;53956;52.442;13.284;2022-08-19T05:50:12;27.20;90.90
18126;DHT22;53956;52.442;13.284;2022-08-19T05:52:40;27.80;88.10
18126;DHT22;53956;52.442;13.284;2022-08-19T05:55:07;28.50;85.90
18126;DHT22;53956;52.442;13.284;2022-08-19T05:57:33;28.70;84.90
18126;DHT22;53956;52.442;13.284;2022-08-19T06:00:00;28.60;86.00
18126;DHT22;53956;52.442;13.284;2022-08-19T06:02:38;28.50;86.20
18126;DHT22;53956;52.442;13.284;2022-08-19T06:05:06;28.10;87.20
18126;DHT22;53956;52.442;13.284;2022-08-19T06:07:34;27.80;88.90
18126;DHT22;53956;52.442;13.284;2022-08-19T06:10:02;27.50;89.90
18126;DHT22;53956;52.442;13.284;2022-08-19T06:12:30;27.30;89.90
18126;DHT22;53956;52.442;13.284;2022-08-19T06:14:58;27.00;91.70
18126;DHT22;53956;52.442;13.284;2022-08-19T06:17:25;27.00;91.10
18126;DHT22;53956;52.442;13.284;2022-08-19T06:19:52;27.00;91.60
18126;DHT22;53956;52.442;13.284;2022-08-19T06:22:18;27.10;91.20
18126;DHT22;53956;52.442;13.284;2022-08-19T06:24:45;27.20;91.10
18126;DHT22;53956;52.442;13.284;2022-08-19T06:27:13;27.00;92.20
18126;DHT22;53956;52.442;13.284;2022-08-19T06:32:08;26.90;92.50
18126;DHT22;53956;52.442;13.284;2022-08-19T06:34:35;27.00;93.00
18126;DHT22;53956;52.442;13.284;2022-08-19T06:37:02;26.90;93.20
18126;DHT22;53956;52.442;13.284;2022-08-19T06:39:36;26.70;93.90
18126;DHT22;53956;52.442;13.284;2022-08-19T06:42:05;26.90;94.30
18126;DHT22;53956;52.442;13.284;2022-08-19T06:44:36;26.90;95.00
18126;DHT22;53956;52.442;13.284;2022-08-19T06:47:06;26.90;94.60
18126;DHT22;53956;52.442;13.284;2022-08-19T06:49:34;26.90;95.90
18126;DHT22;53956;52.442;13.284;2022-08-19T06:52:01;26.90;96.90
18126;DHT22;53956;52.442;13.284;2022-08-19T06:54:28;26.70;95.70
18126;DHT22;53956;52.442;13.284;2022-08-19T06:56:55;26.80;97.80
18126;DHT22;53956;52.442;13.284;2022-08-19T06:59:24;26.90;96.80
18126;DHT22;53956;52.442;13.284;2022-08-19T07:01:55;26.80;97.20
18126;DHT22;53956;52.442;13.284;2022-08-19T07:04:24;26.90;96.10
18126;DHT22;53956;52.442;13.284;2022-08-19T07:06:57;26.90;96.20
18126;DHT22;53956;52.442;13.284;2022-08-19T07:09:26;26.90;96.20
18126;DHT22;53956;52.442;13.284;2022-08-19T07:11:54;26.80;95.60
18126;DHT22;53956;52.442;13.284;2022-08-19T07:14:23;26.90;95.70
18126;DHT22;53956;52.442;13.284;2022-08-19T07:16:53;27.10;95.70
18126;DHT22;53956;52.442;13.284;2022-08-19T07:19:24;27.10;95.70
18126;DHT22;53956;52.442;13.284;2022-08-19T07:21:52;27.20;95.60
18126;DHT22;53956;52.442;13.284;2022-08-19T07:24:20;27.30;95.70
18126;DHT22;53956;52.442;13.284;2022-08-19T07:26:50;27.30;95.60
18126;DHT22;53956;52.442;13.284;2022-08-19T07:29:19;27.20;96.80
18126;DHT22;53956;52.442;13.284;2022-08-19T07:31:48;27.10;96.40
18126;DHT22;53956;52.442;13.284;2022-08-19T07:34:16;27.10;96.40
18126;DHT22;53956;52.442;13.284;2022-08-19T07:36:45;27.00;96.10
18126;DHT22;53956;52.442;13.284;2022-08-19T07:39:14;27.10;96.10
18126;DHT22;53956;52.442;13.284;2022-08-19T07:41:41;27.10;96.70
18126;DHT22;53956;52.442;13.284;2022-08-19T07:44:09;27.10;96.50
18126;DHT22;53956;52.442;13.284;2022-08-19T07:46:40;27.20;96.20
18126;DHT22;53956;52.442;13.284;2022-08-19T07:49:08;27.20;95.80
18126;DHT22;53956;52.442;13.284;2022-08-19T07:51:46;27.10;95.80
18126;DHT22;53956;52.442;13.284;2022-08-19T07:54:13;27.10;95.40
18126;DHT22;53956;52.442;13.284;2022-08-19T07:56:40;27.00;95.80
18126;DHT22;53956;52.442;13.284;2022-08-19T07:59:07;27.00;95.00
18126;DHT22;53956;52.442;13.284;2022-08-19T08:01:35;26.90;95.80
18126;DHT22;53956;52.442;13.284;2022-08-19T08:04:02;27.00;94.90
18126;DHT22;53956;52.442;13.284;2022-08-19T08:06:48;26.90;94.90
18126;DHT22;53956;52.442;13.284;2022-08-19T08:09:35;26.90;96.50
18126;DHT22;53956;52.442;13.284;2022-08-19T08:12:05;26.90;97.20
18126;DHT22;53956;52.442;13.284;2022-08-19T08:14:35;27.00;96.40
18126;DHT22;53956;52.442;13.284;2022-08-19T08:17:03;27.00;95.10
18126;DHT22;53956;52.442;13.284;2022-08-19T08:19:31;26.90;95.50
18126;DHT22;53956;52.442;13.284;2022-08-19T08:22:00;26.90;97.00
18126;DHT22;53956;52.442;13.284;2022-08-19T08:24:30;26.90;96.80
18126;DHT22;53956;52.442;13.284;2022-08-19T08:26:58;26.90;97.00
18126;DHT22;53956;52.442;13.284;2022-08-19T08:29:26;26.90;96.50
18126;DHT22;53956;52.442;13.284;2022-08-19T08:31:53;26.90;96.30
18126;DHT22;53956;52.442;13.284;2022-08-19T08:34:20;26.90;96.30
18126;DHT22;53956;52.442;13.284;2022-08-19T08:36:47;26.90;96.50
18126;DHT22;53956;52.442;13.284;2022-08-19T08:39:20;26.90;96.50
18126;DHT22;53956;52.442;13.284;2022-08-19T08:41:53;26.80;97.00
18126;DHT22;53956;52.442;13.284;2022-08-19T08:44:28;27.00;96.70
18126;DHT22;53956;52.442;13.284;2022-08-19T08:47:01;26.90;96.70
18126;DHT22;53956;52.442;13.284;2022-08-19T08:49:32;26.80;96.90
18126;DHT22;53956;52.442;13.284;2022-08-19T08:52:03;26.80;97.50
18126;DHT22;53956;52.442;13.284;2022-08-19T08:54:34;26.80;97.30
18126;DHT22;53956;52.442;13.284;2022-08-19T08:57:04;26.90;97.30
18126;DHT22;53956;52.442;13.284;2022-08-19T08:59:36;26.90;97.00
18126;DHT22;53956;52.442;13.284;2022-08-19T09:02:03;26.80;97.70
18126;DHT22;53956;52.442;13.284;2022-08-19T09:04:30;26.80;97.30
18126;DHT22;53956;52.442;13.284;2022-08-19T09:07:18;26.90;97.40
18126;DHT22;53956;52.442;13.284;2022-08-19T09:09:49;26.90;97.20
18126;DHT22;53956;52.442;13.284;2022-08-19T09:12:21;26.90;97.10
18126;DHT22;53956;52.442;13.284;2022-08-19T09:14:52;26.90;97.60
18126;DHT22;53956;52.442;13.284;2022-08-19T09:17:21;26.90;97.30
18126;DHT22;53956;52.442;13.284;2022-08-19T09:19:58;26.90;97.60
18126;DHT22;53956;52.442;13.284;2022-08-19T09:22:26;27.00;97.10
18126;DHT22;53956;52.442;13.284;2022-08-19T09:24:55;27.10;96.50
18126;DHT22;53956;52.442;13.284;2022-08-19T09:27:23;27.10;97.20
18126;DHT22;53956;52.442;13.284;2022-08-19T09:29:50;27.20;96.20
18126;DHT22;53956;52.442;13.284;2022-08-19T09:32:19;27.10;94.90
18126;DHT22;53956;52.442;13.284;2022-08-19T09:34:45;27.30;94.70
18126;DHT22;53956;52.442;13.284;2022-08-19T09:37:12;27.20;94.90
18126;DHT22;53956;52.442;13.284;2022-08-19T09:39:40;27.20;93.90
18126;DHT22;53956;52.442;13.284;2022-08-19T09:42:09;27.30;95.30
18126;DHT22;53956;52.442;13.284;2022-08-19T09:44:37;27.30;96.10
18126;DHT22;53956;52.442;13.284;2022-08-19T09:47:04;27.30;96.20
18126;DHT22;53956;52.442;13.284;2022-08-19T09:49:31;27.20;96.70
18126;DHT22;53956;52.442;13.284;2022-08-19T09:51:57;27.30;95.60
18126;DHT22;53956;52.442;13.284;2022-08-19T09:54:25;27.30;93.90
18126;DHT22;53956;52.442;13.284;2022-08-19T09:56:52;27.40;94.80
18126;DHT22;53956;52.442;13.284;2022-08-19T09:59:20;27.40;93.80
18126;DHT22;53956;52.442;13.284;2022-08-19T10:01:47;27.40;93.00
18126;DHT22;53956;52.442;13.284;2022-08-19T10:04:14;27.30;93.50
18126;DHT22;53956;52.442;13.284;2022-08-19T10:06:40;27.40;94.20
18126;DHT22;53956;52.442;13.284;2022-08-19T10:09:10;27.40;93.40
18126;DHT22;53956;52.442;13.284;2022-08-19T10:11:40;27.40;93.90
18126;DHT22;53956;52.442;13.284;2022-08-19T10:14:07;27.40;93.30
18126;DHT22;53956;52.442;13.284;2022-08-19T10:16:36;27.40;93.80
18126;DHT22;53956;52.442;13.284;2022-08-19T10:19:04;27.40;94.30
18126;DHT22;53956;52.442;13.284;2022-08-19T10:21:32;27.50;93.80
18126;DHT22;53956;52.442;13.284;2022-08-19T10:24:02;27.50;93.50
18126;DHT22;53956;52.442;13.284;2022-08-19T10:26:33;27.50;93.10
18126;DHT22;53956;52.442;13.284;2022-08-19T10:29:01;27.70;91.60
18126;DHT22;53956;52.442;13.284;2022-08-19T10:31:31;27.90;91.20
18126;DHT22;53956;52.442;13.284;2022-08-19T10:34:00;27.90;91.90
18126;DHT22;53956;52.442;13.284;2022-08-19T10:36:30;27.80;91.00
18126;DHT22;53956;52.442;13.284;2022-08-19T10:38:59;27.90;90.60
18126;DHT22;53956;52.442;13.284;2022-08-19T10:41:28;27.90;90.40
18126;DHT22;53956;52.442;13.284;2022-08-19T10:43:56;28.00;90.30
18126;DHT22;53956;52.442;13.284;2022-08-19T10:46:26;27.80;90.70
18126;DHT22;53956;52.442;13.284;2022-08-19T10:48:53;27.80;91.10
18126;DHT22;53956;52.442;13.284;2022-08-19T10:51:21;27.80;90.60
18126;DHT22;53956;52.442;13.284;2022-08-19T10:54:06;27.80;90.40
18126;DHT22;53956;52.442;13.284;2022-08-19T10:56:34;27.80;91.00
18126;DHT22;53956;52.442;13.284;2022-08-19T10:59:20;27.80;91.10
18126;DHT22;53956;52.442;13.284;2022-08-19T11:01:48;27.70;91.10
18126;DHT22;53956;52.442;13.284;2022-08-19T11:04:15;27.60;90.80
18126;DHT22;53956;52.442;13.284;2022-08-19T11:06:45;27.50;91.50
18126;DHT22;53956;52.442;13.284;2022-08-19T11:09:13;27.50;91.60
18126;DHT22;53956;52.442;13.284;2022-08-19T11:11:40;27.60;91.60
18126;DHT22;53956;52.442;13.284;2022-08-19T11:14:08;27.60;91.20
18126;DHT22;53956;52.442;13.284;2022-08-19T11:16:35;27.50;91.50
18126;DHT22;53956;52.442;13.284;2022-08-19T11:19:03;27.30;92.10
18126;DHT22;53956;52.442;13.284;2022-08-19T11:21:32;27.20;92.70
18126;DHT22;53956;52.442;13.284;2022-08-19T11:24:03;27.30;92.20
18126;DHT22;53956;52.442;13.284;2022-08-19T11:26:34;27.30;92.90
18126;DHT22;53956;52.442;13.284;2022-08-19T11:29:01;27.30;92.90
18126;DHT22;53956;52.442;13.284;2022-08-19T11:31:30;27.20;93.30
18126;DHT22;53956;52.442;13.284;2022-08-19T11:33:58;27.20;93.00
18126;DHT22;53956;52.442;13.284;2022-08-19T11:36:25;27.20;92.90
18126;DHT22;53956;52.442;13.284;2022-08-19T11:38:52;27.20;92.70
18126;DHT22;53956;52.442;13.284;2022-08-19T11:41:22;27.10;92.80
18126;DHT22;53956;52.442;13.284;2022-08-19T11:43:49;27.30;92.70
18126;DHT22;53956;52.442;13.284;2022-08-19T11:46:18;27.30;92.50
18126;DHT22;53956;52.442;13.284;2022-08-19T11:48:45;27.20;93.00
18126;DHT22;53956;52.442;13.284;2022-08-19T11:51:13;27.30;93.50
18126;DHT22;53956;52.442;13.284;2022-08-19T11:53:41;27.30;92.20
18126;DHT22;53956;52.442;13.284;2022-08-19T11:56:08;27.30;92.10
18126;DHT22;53956;52.442;13.284;2022-08-19T11:58:37;27.30;91.70
18126;DHT22;53956;52.442;13.284;2022-08-19T12:01:05;27.20;92.10
18126;DHT22;53956;52.442;13.284;2022-08-19T12:03:32;27.20;92.30
18126;DHT22;53956;52.442;13.284;2022-08-19T12:06:03;27.10;92.40
18126;DHT22;53956;52.442;13.284;2022-08-19T12:08:30;27.20;92.50
18126;DHT22;53956;52.442;13.284;2022-08-19T12:10:56;27.20;92.60
18126;DHT22;53956;52.442;13.284;2022-08-19T12:13:23;27.10;92.90
18126;DHT22;53956;52.442;13.284;2022-08-19T12:15:51;27.20;92.90
18126;DHT22;53956;52.442;13.284;2022-08-19T12:18:18;27.30;92.70
18126;DHT22;53956;52.442;13.284;2022-08-19T12:20:45;27.20;92.60
18126;DHT22;53956;52.442;13.284;2022-08-19T12:23:13;27.20;92.80
18126;DHT22;53956;52.442;13.284;2022-08-19T12:25:44;27.20;92.30
18126;DHT22;53956;52.442;13.284;2022-08-19T12:28:13;27.30;92.30
18126;DHT22;53956;52.442;13.284;2022-08-19T12:30:40;27.30;92.10
18126;DHT22;53956;52.442;13.284;2022-08-19T12:33:08;27.20;92.90
18126;DHT22;53956;52.442;13.284;2022-08-19T12:35:35;27.20;92.30
18126;DHT22;53956;52.442;13.284;2022-08-19T12:38:01;27.10;92.60
18126;DHT22;53956;52.442;13.284;2022-08-19T12:40:28;27.20;92.30
18126;DHT22;53956;52.442;13.284;2022-08-19T12:42:55;27.20;91.70
18126;DHT22;53956;52.442;13.284;2022-08-19T12:45:21;27.10;92.50
18126;DHT22;53956;52.442;13.284;2022-08-19T12:47:48;27.20;92.90
18126;DHT22;53956;52.442;13.284;2022-08-19T12:50:17;27.10;93.10
18126;DHT22;53956;52.442;13.284;2022-08-19T12:52:43;27.10;93.50
18126;DHT22;53956;52.442;13.284;2022-08-19T12:55:10;27.10;92.70
18126;DHT22;53956;52.442;13.284;2022-08-19T12:57:37;27.00;93.00
18126;DHT22;53956;52.442;13.284;2022-08-19T13:00:07;27.00;92.90
18126;DHT22;53956;52.442;13.284;2022-08-19T13:02:36;27.10;92.00
18126;DHT22;53956;52.442;13.284;2022-08-19T13:05:04;27.10;92.00
18126;DHT22;53956;52.442;13.284;2022-08-19T13:07:33;27.10;91.30
18126;DHT22;53956;52.442;13.284;2022-08-19T13:10:01;27.10;91.60
18126;DHT22;53956;52.442;13.284;2022-08-19T13:12:27;27.20;92.10
18126;DHT22;53956;52.442;13.284;2022-08-19T13:14:55;27.10;91.20
18126;DHT22;53956;52.442;13.284;2022-08-19T13:17:25;27.10;91.50
18126;DHT22;53956;52.442;13.284;2022-08-19T13:19:55;27.00;91.60
18126;DHT22;53956;52.442;13.284;2022-08-19T13:22:21;27.10;91.60
18126;DHT22;53956;52.442;13.284;2022-08-19T13:24:50;27.10;92.00
18126;DHT22;53956;52.442;13.284;2022-08-19T13:27:18;27.20;91.10
18126;DHT22;53956;52.442;13.284;2022-08-19T13:29:45;27.10;91.00
18126;DHT22;53956;52.442;13.284;2022-08-19T13:32:30;27.10;91.50
18126;DHT22;53956;52.442;13.284;2022-08-19T13:35:14;27.10;91.80
18126;DHT22;53956;52.442;13.284;2022-08-19T13:37:41;27.20;91.50
18126;DHT22;53956;52.442;13.284;2022-08-19T13:40:12;27.20;91.10
18126;DHT22;53956;52.442;13.284;2022-08-19T13:42:41;27.20;90.50
18126;DHT22;53956;52.442;13.284;2022-08-19T13:45:09;27.30;90.90
18126;DHT22;53956;52.442;13.284;2022-08-19T13:47:36;27.30;90.70
18126;DHT22;53956;52.442;13.284;2022-08-19T13:50:09;27.40;89.70
18126;DHT22;53956;52.442;13.284;2022-08-19T13:52:37;27.50;88.50
18126;DHT22;53956;52.442;13.284;2022-08-19T13:55:04;27.50;89.00
18126;DHT22;53956;52.442;13.284;2022-08-19T13:57:33;27.60;89.40
18126;DHT22;53956;52.442;13.284;2022-08-19T14:00:00;27.60;88.90
18126;DHT22;53956;52.442;13.284;2022-08-19T14:02:30;27.70;88.90
18126;DHT22;53956;52.442;13.284;2022-08-19T14:04:58;27.80;88.70
18126;DHT22;53956;52.442;13.284;2022-08-19T14:07:24;27.80;88.40
18126;DHT22;53956;52.442;13.284;2022-08-19T14:09:51;27.80;88.00
18126;DHT22;53956;52.442;13.284;2022-08-19T14:12:19;27.80;88.00
18126;DHT22;53956;52.442;13.284;2022-08-19T14:14:48;27.80;87.90
18126;DHT22;53956;52.442;13.284;2022-08-19T14:17:14;27.80;88.80
18126;DHT22;53956;52.442;13.284;2022-08-19T14:19:41;27.90;88.70
18126;DHT22;53956;52.442;13.284;2022-08-19T14:22:08;27.90;88.80
18126;DHT22;53956;52.442;13.284;2022-08-19T14:24:37;27.80;88.80
18126;DHT22;53956;52.442;13.284;2022-08-19T14:27:05;27.80;88.20
18126;DHT22;53956;52.442;13.284;2022-08-19T14:29:32;27.80;88.40
18126;DHT22;53956;52.442;13.284;2022-08-19T14:32:00;27.90;87.10
18126;DHT22;53956;52.442;13.284;2022-08-19T14:34:27;27.80;87.80
18126;DHT22;53956;52.442;13.284;2022-08-19T14:36:54;27.70;87.90
18126;DHT22;53956;52.442;13.284;2022-08-19T14:39:20;27.70;87.40
18126;DHT22;53956;52.442;13.284;2022-08-19T14:41:47;27.70;87.90
18126;DHT22;53956;52.442;13.284;2022-08-19T14:44:14;27.70;88.90
18126;DHT22;53956;52.442;13.284;2022-08-19T14:46:41;27.70;89.00
18126;DHT22;53956;52.442;13.284;2022-08-19T14:49:09;27.70;88.30
18126;DHT22;53956;52.442;13.284;2022-08-19T14:51:35;27.60;88.40
18126;DHT22;53956;52.442;13.284;2022-08-19T14:54:02;27.70;89.00
18126;DHT22;53956;52.442;13.284;2022-08-19T14:56:29;27.70;88.20
18126;DHT22;53956;52.442;13.284;2022-08-19T14:58:59;27.70;89.50
18126;DHT22;53956;52.442;13.284;2022-08-19T15:01:26;27.70;89.90
18126;DHT22;53956;52.442;13.284;2022-08-19T15:03:53;27.50;90.00
18126;DHT22;53956;52.442;13.284;2022-08-19T15:06:21;27.60;89.70
18126;DHT22;53956;52.442;13.284;2022-08-19T15:08:49;27.50;89.60
18126;DHT22;53956;52.442;13.284;2022-08-19T15:11:19;27.30;90.50
18126;DHT22;53956;52.442;13.284;2022-08-19T15:13:49;27.50;90.00
18126;DHT22;53956;52.442;13.284;2022-08-19T15:16:16;27.30;91.10
18126;DHT22;53956;52.442;13.284;2022-08-19T15:18:44;27.40;91.20
18126;DHT22;53956;52.442;13.284;2022-08-19T15:21:11;27.30;91.70
18126;DHT22;53956;52.442;13.284;2022-08-19T15:23:41;27.40;90.80
18126;DHT22;53956;52.442;13.284;2022-08-19T15:26:07;27.30;91.10